IAE7164 XUBS-UMII
Flight info
| Callsign | IAE7164 |
|---|---|
| Flight time | N/A |
| Altitude | 8000 |
| Route | XUBS OLDAP VEPIS UMII |
| Aircraft | L410/L-SG/L |
Departure
| Time | N/A |
|---|---|
| Airport | XUBS |
Arrival
| Time | 2026-04-19 09:09 |
|---|---|
| Airport | Vitebsk Vostochny Airport (UMII) |
| Time | Latitude | Longitude | Altitude | Speed | Heading |
|---|---|---|---|---|---|
| 2026-04-19 08:12 | 54.82243 | 32.03268 | 824 ft | 0 kts | 358° |
| 2026-04-19 08:25 | 54.82246 | 32.03268 | 824 ft | 1 kts | 358° |
| 2026-04-19 08:25 | 54.82263 | 32.03266 | 824 ft | 3 kts | 349° |
| 2026-04-19 08:25 | 54.82284 | 32.03232 | 824 ft | 4 kts | 282° |
| 2026-04-19 08:25 | 54.82283 | 32.03149 | 824 ft | 8 kts | 266° |
| 2026-04-19 08:26 | 54.82279 | 32.03053 | 824 ft | 7 kts | 266° |
| 2026-04-19 08:26 | 54.82276 | 32.02952 | 824 ft | 9 kts | 267° |
| 2026-04-19 08:26 | 54.82271 | 32.02820 | 824 ft | 12 kts | 267° |
| 2026-04-19 08:26 | 54.82267 | 32.02676 | 824 ft | 11 kts | 266° |
| 2026-04-19 08:27 | 54.82262 | 32.02538 | 824 ft | 12 kts | 266° |
| 2026-04-19 08:27 | 54.82258 | 32.02401 | 824 ft | 12 kts | 266° |
| 2026-04-19 08:27 | 54.82256 | 32.02337 | 824 ft | 10 kts | 268° |
| 2026-04-19 08:27 | 54.82252 | 32.02201 | 824 ft | 12 kts | 267° |
| 2026-04-19 08:28 | 54.82247 | 32.02040 | 824 ft | 14 kts | 266° |
| 2026-04-19 08:28 | 54.82241 | 32.01877 | 824 ft | 12 kts | 266° |
| 2026-04-19 08:28 | 54.82236 | 32.01745 | 824 ft | 9 kts | 265° |
| 2026-04-19 08:28 | 54.82232 | 32.01646 | 824 ft | 7 kts | 268° |
| 2026-04-19 08:29 | 54.82230 | 32.01572 | 824 ft | 5 kts | 268° |
| 2026-04-19 08:29 | 54.82229 | 32.01495 | 824 ft | 9 kts | 267° |
| 2026-04-19 08:29 | 54.82224 | 32.01392 | 824 ft | 7 kts | 267° |
| 2026-04-19 08:29 | 54.82231 | 32.01310 | 824 ft | 5 kts | 306° |
| 2026-04-19 08:30 | 54.82257 | 32.01284 | 824 ft | 3 kts | 353° |
| 2026-04-19 08:30 | 54.82278 | 32.01287 | 824 ft | 2 kts | 7° |
| 2026-04-19 08:30 | 54.82301 | 32.01291 | 824 ft | 2 kts | 2° |
| 2026-04-19 08:30 | 54.82321 | 32.01292 | 824 ft | 2 kts | 2° |
| 2026-04-19 08:31 | 54.82338 | 32.01291 | 824 ft | 0 kts | 355° |
| 2026-04-19 08:31 | 54.82341 | 32.01291 | 824 ft | 0 kts | 355° |
| 2026-04-19 08:31 | 54.82343 | 32.01291 | 824 ft | 0 kts | 355° |
| 2026-04-19 08:31 | 54.82346 | 32.01290 | 824 ft | 0 kts | 355° |
| 2026-04-19 08:32 | 54.82360 | 32.01288 | 824 ft | 2 kts | 356° |
| 2026-04-19 08:32 | 54.82380 | 32.01286 | 824 ft | 3 kts | 357° |
| 2026-04-19 08:32 | 54.82408 | 32.01291 | 824 ft | 4 kts | 29° |
| 2026-04-19 08:32 | 54.82420 | 32.01330 | 824 ft | 3 kts | 84° |
| 2026-04-19 08:33 | 54.82420 | 32.01358 | 824 ft | 1 kts | 88° |
| 2026-04-19 08:33 | 54.82420 | 32.01359 | 824 ft | 0 kts | 88° |
| 2026-04-19 08:34 | 54.82420 | 32.01360 | 824 ft | 0 kts | 88° |
| 2026-04-19 08:34 | 54.82429 | 32.01629 | 824 ft | 53 kts | 85° |
| 2026-04-19 08:34 | 54.82451 | 32.02567 | 857 ft | 94 kts | 84° |
| 2026-04-19 08:35 | 54.82446 | 32.03691 | 1126 ft | 91 kts | 83° |
| 2026-04-19 08:35 | 54.82431 | 32.04836 | 1364 ft | 108 kts | 84° |
| 2026-04-19 08:35 | 54.82444 | 32.06276 | 1607 ft | 127 kts | 79° |
| 2026-04-19 08:35 | 54.82735 | 32.07736 | 1898 ft | 131 kts | 49° |
| 2026-04-19 08:36 | 54.83481 | 32.08481 | 2254 ft | 127 kts | 4° |
| 2026-04-19 08:36 | 54.84306 | 32.08122 | 2668 ft | 124 kts | 332° |
| 2026-04-19 08:36 | 54.84932 | 32.07107 | 3033 ft | 127 kts | 309° |
| 2026-04-19 08:36 | 54.85443 | 32.05845 | 3392 ft | 129 kts | 306° |
| 2026-04-19 08:37 | 54.85949 | 32.04452 | 3603 ft | 140 kts | 303° |
| 2026-04-19 08:37 | 54.86474 | 32.02996 | 3837 ft | 146 kts | 304° |
| 2026-04-19 08:37 | 54.87022 | 32.01485 | 4065 ft | 151 kts | 304° |
| 2026-04-19 08:37 | 54.87600 | 31.99921 | 4292 ft | 155 kts | 304° |
| 2026-04-19 08:38 | 54.88208 | 31.98307 | 4521 ft | 157 kts | 304° |
| 2026-04-19 08:38 | 54.88823 | 31.96665 | 4743 ft | 159 kts | 304° |
| 2026-04-19 08:38 | 54.89433 | 31.95046 | 4964 ft | 160 kts | 304° |
| 2026-04-19 08:38 | 54.90053 | 31.93404 | 5185 ft | 161 kts | 304° |
| 2026-04-19 08:39 | 54.90674 | 31.91759 | 5407 ft | 161 kts | 304° |
| 2026-04-19 08:39 | 54.91296 | 31.90120 | 5625 ft | 162 kts | 304° |
| 2026-04-19 08:39 | 54.91917 | 31.88494 | 5843 ft | 162 kts | 304° |
| 2026-04-19 08:39 | 54.92542 | 31.86858 | 6062 ft | 162 kts | 304° |
| 2026-04-19 08:40 | 54.93171 | 31.85211 | 6287 ft | 162 kts | 304° |
| 2026-04-19 08:40 | 54.93794 | 31.83579 | 6530 ft | 160 kts | 304° |
| 2026-04-19 08:40 | 54.94426 | 31.81928 | 6780 ft | 158 kts | 304° |
| 2026-04-19 08:40 | 54.95036 | 31.80331 | 7022 ft | 157 kts | 304° |
| 2026-04-19 08:41 | 54.95624 | 31.78719 | 7264 ft | 157 kts | 302° |
| 2026-04-19 08:41 | 54.96201 | 31.77086 | 7510 ft | 156 kts | 302° |
| 2026-04-19 08:41 | 54.96771 | 31.75471 | 7755 ft | 155 kts | 302° |
| 2026-04-19 08:41 | 54.97343 | 31.73851 | 8001 ft | 154 kts | 302° |
| 2026-04-19 08:42 | 54.97923 | 31.72211 | 8079 ft | 163 kts | 302° |
| 2026-04-19 08:42 | 54.98537 | 31.70472 | 8112 ft | 172 kts | 302° |
| 2026-04-19 08:42 | 54.99177 | 31.68645 | 8139 ft | 177 kts | 302° |
| 2026-04-19 08:42 | 54.99826 | 31.66795 | 8136 ft | 180 kts | 302° |
| 2026-04-19 08:43 | 55.00478 | 31.64925 | 8135 ft | 181 kts | 302° |
| 2026-04-19 08:43 | 55.01112 | 31.63017 | 8132 ft | 181 kts | 300° |
| 2026-04-19 08:43 | 55.01356 | 31.60870 | 8121 ft | 185 kts | 268° |
| 2026-04-19 08:43 | 55.01406 | 31.58646 | 8137 ft | 183 kts | 280° |
| 2026-04-19 08:44 | 55.01624 | 31.56468 | 8135 ft | 182 kts | 284° |
| 2026-04-19 08:44 | 55.01906 | 31.54281 | 8134 ft | 183 kts | 286° |
| 2026-04-19 08:44 | 55.02084 | 31.52985 | 8134 ft | 182 kts | 286° |
| 2026-04-19 08:44 | 55.02390 | 31.50832 | 8134 ft | 183 kts | 287° |
| 2026-04-19 08:45 | 55.02624 | 31.49203 | 8133 ft | 183 kts | 287° |
| 2026-04-19 08:45 | 55.02937 | 31.47028 | 8134 ft | 183 kts | 287° |
| 2026-04-19 08:45 | 55.03247 | 31.44875 | 8133 ft | 183 kts | 287° |
| 2026-04-19 08:45 | 55.03557 | 31.42714 | 8134 ft | 183 kts | 287° |
| 2026-04-19 08:46 | 55.03808 | 31.40973 | 8133 ft | 183 kts | 287° |
| 2026-04-19 08:46 | 55.03973 | 31.39826 | 8133 ft | 183 kts | 287° |
| 2026-04-19 08:46 | 55.04244 | 31.37930 | 8133 ft | 183 kts | 287° |
| 2026-04-19 08:46 | 55.04553 | 31.35780 | 8133 ft | 183 kts | 287° |
| 2026-04-19 08:47 | 55.04867 | 31.33588 | 8134 ft | 183 kts | 286° |
| 2026-04-19 08:47 | 55.05176 | 31.31434 | 8134 ft | 184 kts | 286° |
| 2026-04-19 08:47 | 55.05485 | 31.29271 | 8134 ft | 184 kts | 286° |
| 2026-04-19 08:47 | 55.05794 | 31.27106 | 8134 ft | 184 kts | 286° |
| 2026-04-19 08:48 | 55.05921 | 31.26222 | 8134 ft | 184 kts | 286° |
| 2026-04-19 08:48 | 55.06230 | 31.24064 | 8134 ft | 184 kts | 286° |
| 2026-04-19 08:48 | 55.06541 | 31.21886 | 8134 ft | 184 kts | 286° |
| 2026-04-19 08:48 | 55.06775 | 31.20238 | 8134 ft | 184 kts | 286° |
| 2026-04-19 08:49 | 55.06994 | 31.18694 | 8134 ft | 184 kts | 286° |
| 2026-04-19 08:49 | 55.07304 | 31.16485 | 8134 ft | 183 kts | 286° |
| 2026-04-19 08:49 | 55.07614 | 31.14277 | 8134 ft | 183 kts | 286° |
| 2026-04-19 08:49 | 55.07922 | 31.12092 | 8134 ft | 183 kts | 285° |
| 2026-04-19 08:50 | 55.08233 | 31.09878 | 8134 ft | 183 kts | 285° |
| 2026-04-19 08:50 | 55.08542 | 31.07682 | 8134 ft | 183 kts | 285° |
| 2026-04-19 08:50 | 55.08854 | 31.05469 | 8134 ft | 182 kts | 285° |
| 2026-04-19 08:50 | 55.09164 | 31.03257 | 8135 ft | 182 kts | 285° |
| 2026-04-19 08:51 | 55.09473 | 31.01057 | 8134 ft | 182 kts | 285° |
| 2026-04-19 08:51 | 55.09768 | 30.98814 | 8128 ft | 182 kts | 279° |
| 2026-04-19 08:51 | 55.09892 | 30.96624 | 8134 ft | 182 kts | 277° |
| 2026-04-19 08:51 | 55.10007 | 30.94422 | 8134 ft | 181 kts | 277° |
| 2026-04-19 08:52 | 55.10117 | 30.92214 | 8135 ft | 179 kts | 277° |
| 2026-04-19 08:52 | 55.10227 | 30.90010 | 8135 ft | 178 kts | 277° |
| 2026-04-19 08:52 | 55.10339 | 30.87785 | 8135 ft | 177 kts | 277° |
| 2026-04-19 08:52 | 55.10445 | 30.85635 | 8135 ft | 177 kts | 277° |
| 2026-04-19 08:53 | 55.10550 | 30.83506 | 8135 ft | 176 kts | 277° |
| 2026-04-19 08:53 | 55.10656 | 30.81350 | 8135 ft | 176 kts | 277° |
| 2026-04-19 08:53 | 55.10759 | 30.79249 | 8133 ft | 172 kts | 277° |
| 2026-04-19 08:53 | 55.10858 | 30.77200 | 8131 ft | 164 kts | 277° |
| 2026-04-19 08:54 | 55.10954 | 30.75249 | 8131 ft | 159 kts | 277° |
| 2026-04-19 08:54 | 55.11046 | 30.73334 | 8112 ft | 157 kts | 277° |
| 2026-04-19 08:54 | 55.11140 | 30.71401 | 7965 ft | 162 kts | 277° |
| 2026-04-19 08:54 | 55.11235 | 30.69420 | 7821 ft | 165 kts | 277° |
| 2026-04-19 08:55 | 55.11332 | 30.67411 | 7676 ft | 168 kts | 277° |
| 2026-04-19 08:55 | 55.11430 | 30.65349 | 7517 ft | 170 kts | 277° |
| 2026-04-19 08:55 | 55.11529 | 30.63282 | 7346 ft | 172 kts | 277° |
| 2026-04-19 08:55 | 55.11630 | 30.61159 | 7172 ft | 173 kts | 277° |
| 2026-04-19 08:56 | 55.11661 | 30.60504 | 7118 ft | 174 kts | 277° |
| 2026-04-19 08:56 | 55.11759 | 30.58434 | 6950 ft | 174 kts | 277° |
| 2026-04-19 08:56 | 55.11858 | 30.56319 | 6773 ft | 172 kts | 277° |
| 2026-04-19 08:56 | 55.11956 | 30.54221 | 6592 ft | 169 kts | 277° |
| 2026-04-19 08:57 | 55.12052 | 30.52180 | 6418 ft | 168 kts | 278° |
| 2026-04-19 08:57 | 55.12134 | 30.50432 | 6267 ft | 167 kts | 278° |
| 2026-04-19 08:57 | 55.12207 | 30.48872 | 6133 ft | 167 kts | 278° |
| 2026-04-19 08:57 | 55.12301 | 30.46823 | 5945 ft | 162 kts | 277° |
| 2026-04-19 08:58 | 55.12393 | 30.44827 | 5762 ft | 158 kts | 278° |
| 2026-04-19 08:58 | 55.12480 | 30.42902 | 5583 ft | 154 kts | 278° |
| 2026-04-19 08:58 | 55.12567 | 30.41023 | 5411 ft | 152 kts | 279° |
| 2026-04-19 08:58 | 55.12651 | 30.39164 | 5237 ft | 151 kts | 279° |
| 2026-04-19 08:59 | 55.12735 | 30.37333 | 5062 ft | 150 kts | 278° |
| 2026-04-19 08:59 | 55.12548 | 30.35505 | 4879 ft | 154 kts | 255° |
| 2026-04-19 08:59 | 55.12144 | 30.33784 | 4710 ft | 154 kts | 251° |
| 2026-04-19 08:59 | 55.11699 | 30.32071 | 4537 ft | 154 kts | 245° |
| 2026-04-19 09:00 | 55.10903 | 30.30780 | 4360 ft | 158 kts | 220° |
| 2026-04-19 09:00 | 55.10019 | 30.29630 | 4189 ft | 157 kts | 221° |
| 2026-04-19 09:00 | 55.09146 | 30.28462 | 4017 ft | 157 kts | 222° |
| 2026-04-19 09:00 | 55.08292 | 30.27309 | 3875 ft | 155 kts | 223° |
| 2026-04-19 09:01 | 55.07444 | 30.26148 | 3725 ft | 154 kts | 223° |
| 2026-04-19 09:01 | 55.06610 | 30.25008 | 3625 ft | 150 kts | 223° |
| 2026-04-19 09:01 | 55.05782 | 30.23882 | 3525 ft | 148 kts | 224° |
| 2026-04-19 09:01 | 55.04961 | 30.22759 | 3423 ft | 146 kts | 223° |
| 2026-04-19 09:02 | 55.04166 | 30.21673 | 3325 ft | 145 kts | 223° |
| 2026-04-19 09:02 | 55.03510 | 30.20775 | 3242 ft | 144 kts | 223° |
| 2026-04-19 09:02 | 55.03055 | 30.20157 | 3181 ft | 143 kts | 223° |
| 2026-04-19 09:02 | 55.02272 | 30.19091 | 3088 ft | 142 kts | 223° |
| 2026-04-19 09:03 | 55.01503 | 30.18001 | 3044 ft | 135 kts | 234° |
| 2026-04-19 09:03 | 55.01231 | 30.16558 | 3023 ft | 121 kts | 282° |
| 2026-04-19 09:03 | 55.01611 | 30.15409 | 3030 ft | 108 kts | 328° |
| 2026-04-19 09:03 | 55.02328 | 30.15211 | 3035 ft | 109 kts | 14° |
| 2026-04-19 09:04 | 55.03005 | 30.15892 | 3035 ft | 112 kts | 27° |
| 2026-04-19 09:04 | 55.03685 | 30.16636 | 3031 ft | 114 kts | 27° |
| 2026-04-19 09:04 | 55.04372 | 30.17388 | 3026 ft | 115 kts | 28° |
| 2026-04-19 09:04 | 55.05047 | 30.18130 | 3028 ft | 115 kts | 28° |
| 2026-04-19 09:05 | 55.05731 | 30.18882 | 3029 ft | 115 kts | 25° |
| 2026-04-19 09:05 | 55.06485 | 30.19254 | 2980 ft | 110 kts | 10° |
| 2026-04-19 09:05 | 55.07241 | 30.19548 | 2879 ft | 109 kts | 9° |
| 2026-04-19 09:05 | 55.07985 | 30.19836 | 2780 ft | 109 kts | 10° |
| 2026-04-19 09:06 | 55.08727 | 30.20128 | 2683 ft | 108 kts | 10° |
| 2026-04-19 09:06 | 55.09372 | 30.20810 | 2590 ft | 114 kts | 51° |
| 2026-04-19 09:06 | 55.09542 | 30.22181 | 2505 ft | 121 kts | 86° |
| 2026-04-19 09:06 | 55.09505 | 30.23672 | 2421 ft | 122 kts | 87° |
| 2026-04-19 09:07 | 55.09621 | 30.25079 | 2326 ft | 113 kts | 58° |
| 2026-04-19 09:07 | 55.09949 | 30.26165 | 2197 ft | 95 kts | 55° |
| 2026-04-19 09:07 | 55.10244 | 30.27148 | 1960 ft | 92 kts | 54° |
| 2026-04-19 09:07 | 55.10543 | 30.28126 | 1714 ft | 91 kts | 53° |
| 2026-04-19 09:08 | 55.10840 | 30.29111 | 1411 ft | 92 kts | 53° |
| 2026-04-19 09:08 | 55.11129 | 30.30071 | 1179 ft | 87 kts | 56° |
| 2026-04-19 09:08 | 55.11403 | 30.30987 | 1007 ft | 80 kts | 54° |
| 2026-04-19 09:08 | 55.11631 | 30.31751 | 917 ft | 67 kts | 50° |
| 2026-04-19 09:09 | 55.11867 | 30.32439 | 825 ft | 66 kts | 55° |
| 2026-04-19 09:09 | 55.12083 | 30.33147 | 715 ft | 64 kts | 53° |
| 2026-04-19 09:09 | 55.12289 | 30.33787 | 687 ft | 52 kts | 57° |
| 2026-04-19 09:09 | 55.12417 | 30.34239 | 687 ft | 32 kts | 63° |
| 2026-04-19 09:10 | 55.12499 | 30.34516 | 687 ft | 19 kts | 61° |
| 2026-04-19 09:10 | 55.12555 | 30.34710 | 687 ft | 16 kts | 60° |
| 2026-04-19 09:10 | 55.12604 | 30.34871 | 687 ft | 14 kts | 62° |
| 2026-04-19 09:10 | 55.12649 | 30.35019 | 687 ft | 12 kts | 62° |
| 2026-04-19 09:11 | 55.12687 | 30.35148 | 687 ft | 11 kts | 58° |
| 2026-04-19 09:11 | 55.12726 | 30.35276 | 687 ft | 12 kts | 62° |
| 2026-04-19 09:11 | 55.12770 | 30.35422 | 687 ft | 14 kts | 62° |
| 2026-04-19 09:11 | 55.12813 | 30.35561 | 687 ft | 10 kts | 62° |
| 2026-04-19 09:12 | 55.12841 | 30.35657 | 687 ft | 7 kts | 62° |
| 2026-04-19 09:12 | 55.12868 | 30.35740 | 687 ft | 6 kts | 61° |
| 2026-04-19 09:12 | 55.12888 | 30.35800 | 687 ft | 6 kts | 54° |
| 2026-04-19 09:12 | 55.12926 | 30.35840 | 687 ft | 5 kts | 0° |
| 2026-04-19 09:13 | 55.12954 | 30.35825 | 687 ft | 2 kts | 333° |
| 2026-04-19 09:13 | 55.12957 | 30.35822 | 687 ft | 0 kts | 333° |
| 2026-04-19 09:13 | 55.12958 | 30.35821 | 687 ft | 0 kts | 333° |
| 2026-04-19 09:14 | 55.12966 | 30.35814 | 687 ft | 1 kts | 333° |
| 2026-04-19 09:14 | 55.12978 | 30.35804 | 687 ft | 3 kts | 332° |
| 2026-04-19 09:14 | 55.13010 | 30.35774 | 687 ft | 3 kts | 333° |
| 2026-04-19 09:14 | 55.13040 | 30.35747 | 687 ft | 5 kts | 332° |
| 2026-04-19 09:15 | 55.13074 | 30.35716 | 687 ft | 4 kts | 333° |
| 2026-04-19 09:15 | 55.13102 | 30.35672 | 687 ft | 5 kts | 288° |
| 2026-04-19 09:15 | 55.13076 | 30.35556 | 687 ft | 5 kts | 238° |
| 2026-04-19 09:16 | 55.13047 | 30.35531 | 687 ft | 5 kts | 163° |
| 2026-04-19 09:16 | 55.13017 | 30.35559 | 687 ft | 4 kts | 158° |
| 2026-04-19 09:16 | 55.13008 | 30.35568 | 687 ft | 0 kts | 151° |
| 2026-04-19 09:16 | 55.13008 | 30.35567 | 687 ft | 0 kts | 151° |